Terminal Aerodrome Forecast
Issued by NWS

Current Version | Previous Version | Graphics & Text | Print | Product List | Glossary Off
Versions: 1 2 3 4 5 6 7 8 9 10 11 12 13 14 15 16 17 18 19 20 21 22 23 24

000
FTUS41 KILN 252200 AAC
TAFLCK
TAF AMD
KLCK 252216Z 2522/2618 09006KT 4SM -RA OVC009
     FM260000 02012KT 1SM -RASN OVC005
      TEMPO 2600/2602 1/2SM SN
     FM260200 02013G21KT 2SM -SN OVC015
      TEMPO 2603/2607 1SM -SN OVC009
     FM261000 36014KT 5SM -SN OVC015
     FM261300 34011KT P6SM OVC012=

USA.gov is the U.S. government's official web portal to all federal, state and local government web resources and services.